Time;durP1;ratioP1;P1;durP2;ratioP2;P2;SDS_P1;SDS_P2;PMS_P1;PMS_P2;Temp;Humidity;BMP_temperature;BMP_pressure;BME280_temperature;BME280_humidity;BME280_pressure;Samples;Min_cycle;Max_cycle;Signal;HPM_P1;HPM_P2
2022/07/01 00:05:39;;;;;;;3.00;1.40;;;22.10;40.20;;;;;;21256039;27;20054;-57
2022/07/01 00:15:41;;;;;;;3.30;1.42;;;21.80;40.80;;;;;;21256806;27;20513;-57
2022/07/01 00:25:43;;;;;;;5.40;1.63;;;21.40;41.40;;;;;;21255080;27;20391;-57
2022/07/01 00:35:44;;;;;;;3.75;1.15;;;21.20;41.60;;;;;;21255340;27;20077;-58
2022/07/01 00:45:48;;;;;;;4.10;1.30;;;21.10;41.80;;;;;;21254307;27;20082;-56
2022/07/01 00:55:49;;;;;;;2.17;1.48;;;20.80;42.00;;;;;;21252915;27;20421;-57
2022/07/01 01:05:51;;;;;;;1.60;1.15;;;20.70;42.20;;;;;;21251307;27;20063;-59
2022/07/01 01:15:52;;;;;;;4.15;1.27;;;20.60;42.40;;;;;;21251948;27;20090;-57
2022/07/01 01:25:53;;;;;;;2.42;1.20;;;20.60;42.20;;;;;;21250457;27;20451;-57
2022/07/01 01:35:55;;;;;;;2.78;1.20;;;20.50;42.40;;;;;;21249334;27;20050;-57
2022/07/01 01:45:56;;;;;;;3.22;1.58;;;20.20;42.60;;;;;;21230851;27;20521;-57
2022/07/01 01:55:57;;;;;;;3.83;1.40;;;20.20;42.40;;;;;;21230274;27;20478;-57
2022/07/01 02:05:59;;;;;;;2.20;1.33;;;20.10;42.30;;;;;;21248298;27;20096;-59
2022/07/01 02:16:00;;;;;;;2.63;1.50;;;20.00;42.20;;;;;;21248078;27;20044;-57
2022/07/01 02:26:12;;;;;;;3.08;1.10;;;19.90;42.30;;;;;;21247355;27;20054;-57
2022/07/01 02:36:18;;;;;;;2.92;1.35;;;19.70;42.40;;;;;;21246879;27;20051;-57
2022/07/01 02:46:25;;;;;;;5.82;1.40;;;19.90;42.20;;;;;;21252444;27;20047;-57
2022/07/01 02:56:29;;;;;;;3.88;1.27;;;19.60;42.60;;;;;;21264576;27;20043;-57
2022/07/01 03:06:35;;;;;;;2.47;1.20;;;19.50;42.90;;;;;;21261973;27;20498;-56
2022/07/01 03:16:41;;;;;;;3.17;1.30;;;19.40;43.10;;;;;;21260979;27;20047;-59
2022/07/01 03:26:44;;;;;;;3.75;1.02;;;19.50;43.00;;;;;;21260702;27;20050;-58
2022/07/01 03:36:46;;;;;;;3.03;1.23;;;19.30;43.30;;;;;;21259374;27;20051;-57
2022/07/01 03:46:49;;;;;;;3.70;1.40;;;19.30;43.20;;;;;;21258786;27;20051;-58
2022/07/01 03:56:52;;;;;;;2.42;1.10;;;19.00;44.10;;;;;;21257255;27;20051;-58
2022/07/01 04:06:55;;;;;;;4.93;1.40;;;18.90;44.30;;;;;;21257064;27;20051;-59
2022/07/01 04:16:57;;;;;;;4.15;1.20;;;18.80;44.50;;;;;;21256715;27;20505;-59
2022/07/01 04:27:00;;;;;;;1.80;1.20;;;18.90;44.30;;;;;;21255104;27;20054;-59
2022/07/01 04:37:02;;;;;;;5.23;1.23;;;18.70;44.60;;;;;;21254938;27;20482;-57
2022/07/01 04:47:05;;;;;;;5.68;1.63;;;18.70;45.00;;;;;;21254411;27;20481;-57
2022/07/01 04:57:09;;;;;;;3.88;1.30;;;18.70;45.00;;;;;;21252454;27;20167;-57
2022/07/01 05:07:27;;;;;;;4.72;1.77;;;18.60;45.30;;;;;;21250681;27;20069;-58
2022/07/01 05:27:50;;;;;;;1.90;1.20;;;18.60;45.30;;;;;;21251339;27;20102;-57
2022/07/01 05:37:52;;;;;;;4.40;1.23;;;18.70;44.90;;;;;;21248982;27;20043;-57
2022/07/01 05:47:54;;;;;;;4.28;1.30;;;18.90;44.90;;;;;;21248430;27;20058;-57
2022/07/01 05:57:56;;;;;;;4.07;1.23;;;18.90;45.00;;;;;;21247840;27;20184;-57
2022/07/01 06:07:57;;;;;;;5.05;1.73;;;18.90;45.00;;;;;;21247220;27;20055;-58
2022/07/01 06:18:00;;;;;;;8.20;2.10;;;19.00;45.00;;;;;;21249314;27;20483;-58
2022/07/01 06:28:03;;;;;;;19.93;9.53;;;19.10;45.00;;;;;;21264465;27;20050;-58
2022/07/01 06:38:06;;;;;;;5.90;1.40;;;19.20;45.40;;;;;;21263480;27;20059;-58
2022/07/01 06:48:07;;;;;;;3.70;1.13;;;19.20;45.30;;;;;;21262330;27;20047;-58
2022/07/01 06:58:09;;;;;;;4.95;1.40;;;19.40;44.90;;;;;;21262380;27;20043;-57
2022/07/01 07:08:11;;;;;;;3.92;1.40;;;20.10;43.90;;;;;;21260196;27;20406;-57
2022/07/01 07:18:13;;;;;;;3.30;1.27;;;20.70;42.30;;;;;;21259731;27;20055;-57
2022/07/01 07:28:15;;;;;;;3.90;1.92;;;21.60;40.80;;;;;;21259878;27;20043;-58
2022/07/01 07:38:17;;;;;;;3.57;1.40;;;21.70;40.30;;;;;;21257256;27;20043;-58
2022/07/01 07:48:19;;;;;;;4.13;1.50;;;22.40;39.30;;;;;;21257253;27;20057;-57
2022/07/01 07:58:21;;;;;;;5.57;1.70;;;22.40;39.40;;;;;;21256425;27;20134;-58
2022/07/01 08:08:23;;;;;;;6.70;1.70;;;;;;;;;;21255515;27;20050;-59
2022/07/01 08:18:25;;;;;;;4.47;1.80;;;;;;;;;;21255856;27;20402;-56
2022/07/01 08:28:27;;;;;;;3.47;1.77;;;;;;;;;;21255615;27;20157;-58
2022/07/01 08:38:29;;;;;;;9.60;2.10;;;;;;;;;;21253988;27;20047;-56
2022/07/01 08:48:31;;;;;;;4.25;1.63;;;;;;;;;;21252852;27;20051;-57
2022/07/01 08:58:36;;;;;;;7.00;2.20;;;;;;;;;;21253517;27;20043;-55
2022/07/01 09:08:39;;;;;;;7.82;2.13;;;;;;;;;;21229030;27;20077;-56
2022/07/01 09:18:41;;;;;;;6.50;2.30;;;;;;;;;;21249219;27;20414;-57
2022/07/01 09:28:52;;;;;;;6.20;2.13;;;;;;;;;;21249472;27;20414;-57
2022/07/01 09:38:54;;;;;;;8.00;2.30;;;;;;;;;;21248977;27;20695;-57
2022/07/01 09:48:56;;;;;;;2.90;2.00;;;;;;;;;;21248472;27;20138;-58
2022/07/01 09:58:58;;;;;;;7.93;2.35;;;;;;;;;;21247943;27;20437;-54
2022/07/01 10:09:24;;;;;;;9.23;2.80;;;;;;;;;;21247021;27;20068;-55
2022/07/01 10:19:27;;;;;;;7.13;2.67;;;;;;;;;;21236801;28;20051;-55
2022/07/01 10:29:29;;;;;;;3.60;2.28;;;;;;;;;;21245518;27;20157;-58
2022/07/01 10:39:31;;;;;;;6.38;2.70;;;;;;;;;;21247093;28;20632;-58
2022/07/01 10:49:36;;;;;;;7.55;2.90;;;;;;;;;;21245555;28;20104;-59
2022/07/01 10:59:38;;;;;;;8.13;2.67;;;;;;;;;;21245455;28;20096;-57
2022/07/01 11:09:41;;;;;;;6.15;2.20;;;;;;;;;;21254053;27;20081;-57
2022/07/01 11:19:48;;;;;;;6.80;2.78;;;;;;;;;;21261088;27;20043;-57
2022/07/01 11:29:54;;;;;;;8.73;2.47;;;;;;;;;;21246813;27;20052;-56
2022/07/01 11:40:08;;;;;;;7.85;2.05;;;;;;;;;;21204578;27;20387;-55
2022/07/01 11:50:14;;;;;;;7.18;2.28;;;;;;;;;;21193287;27;20044;-54
2022/07/01 12:00:16;;;;;;;5.97;1.90;;;;;;;;;;21211236;27;20390;-53
2022/07/01 12:10:18;;;;;;;6.10;2.30;;;;;;;;;;21202575;27;20051;-59
2022/07/01 12:20:33;;;;;;;8.50;2.35;;;;;;;;;;21170055;28;20517;-58
2022/07/01 12:30:35;;;;;;;6.63;2.40;;;;;;;;;;21170894;28;20093;-57
2022/07/01 12:40:36;;;;;;;7.97;2.65;;;;;;;;;;21169399;28;20071;-57
2022/07/01 12:50:38;;;;;;;6.03;2.33;;;;;;;;;;21169531;28;20051;-59
2022/07/01 13:00:42;;;;;;;4.25;2.10;;;;;;;;;;21169434;28;20043;-61
2022/07/01 13:10:45;;;;;;;4.20;2.30;;;;;;;;;;21166910;28;20047;-59
2022/07/01 13:20:47;;;;;;;5.97;2.33;;;;;;;;;;21166465;28;20047;-56
2022/07/01 13:30:49;;;;;;;7.72;2.08;;;;;;;;;;21166553;28;20052;-56
2022/07/01 13:40:52;;;;;;;4.70;2.20;;;;;;;;;;21165396;28;20048;-58
2022/07/01 13:50:55;;;;;;;6.20;2.13;;;;;;;;;;21163701;28;20154;-58
2022/07/01 14:00:57;;;;;;;3.53;1.50;;;;;;;;;;21163150;28;20051;-57
2022/07/01 14:10:58;;;;;;;4.53;2.15;;;;;;;;;;21163654;28;20042;-57
2022/07/01 14:20:59;;;;;;;4.75;1.73;;;;;;;;;;21163235;28;20059;-57
2022/07/01 14:31:00;;;;;;;5.75;1.83;;;;;;;;;;21163290;28;20040;-57
2022/07/01 14:41:02;;;;;;;7.90;3.30;;;;;;;;;;21167081;28;20073;-56
2022/07/01 14:51:03;;;;;;;5.88;1.65;;;;;;;;;;21179539;28;20061;-56
2022/07/01 15:01:04;;;;;;;5.10;1.92;;;;;;;;;;21177486;28;20128;-57
2022/07/01 15:11:05;;;;;;;4.15;2.00;;;;;;;;;;21176390;28;20522;-55
2022/07/01 15:21:06;;;;;;;5.70;1.70;;;;;;;;;;21176583;28;20075;-57
2022/07/01 15:31:08;;;;;;;6.00;1.60;;;;;;;;;;21175534;28;20089;-58
2022/07/01 15:41:10;;;;;;;3.28;1.65;;;;;;;;;;21174670;28;20048;-56
2022/07/01 15:51:11;;;;;;;5.38;2.05;;;;;;;;;;21172746;28;20138;-57
2022/07/01 16:01:13;;;;;;;6.70;1.90;;;;;;;;;;21171714;28;20459;-62
2022/07/01 16:11:14;;;;;;;5.55;2.95;;;;;;;;;;21170333;28;20048;-60
2022/07/01 16:21:16;;;;;;;5.70;1.80;;;;;;;;;;21171188;28;20043;-57
2022/07/01 16:31:18;;;;;;;5.82;3.13;;;;;;;;;;21170023;28;20054;-55
2022/07/01 16:41:39;;;;;;;7.30;2.17;;;;;;;;;;21169064;28;20153;-56
2022/07/01 16:51:42;;;;;;;5.80;1.85;;;;;;;;;;21167567;28;20126;-54
2022/07/01 17:01:44;;;;;;;9.93;2.80;;;;;;;;;;21204947;27;20060;-59
2022/07/01 17:11:45;;;;;;;7.20;2.40;;;;;;;;;;21225230;27;20122;-56
2022/07/01 17:21:49;;;;;;;6.38;2.17;;;;;;;;;;21237154;27;20415;-56
2022/07/01 17:31:57;;;;;;;6.72;2.65;;;;;;;;;;21247895;27;20051;-57
2022/07/01 17:42:00;;;;;;;2.65;1.60;;;;;;;;;;21247765;27;20463;-57
2022/07/01 17:52:03;;;;;;;9.13;2.17;;;;;;;;;;21249012;27;20069;-55
2022/07/01 18:02:04;;;;;;;6.90;2.70;;;;;;;;;;21247079;27;20064;-56
2022/07/01 18:12:24;;;;;;;16.73;1.75;;;;;;;;;;21246619;27;20047;-57
2022/07/01 18:22:29;;;;;;;5.60;1.90;;;;;;;;;;21245467;27;20043;-59
2022/07/01 18:32:33;;;;;;;3.33;1.90;;;;;;;;;;21246469;28;20051;-55
2022/07/01 18:42:35;;;;;;;5.70;1.75;;;;;;;;;;21245406;27;20438;-55
2022/07/01 18:52:37;;;;;;;6.40;2.10;;;;;;;;;;21237669;27;20039;-56
2022/07/01 19:02:39;;;;;;;5.30;1.63;;;;;;;;;;21243446;27;20099;-56
2022/07/01 19:12:41;;;;;;;5.10;3.13;;;;;;;;;;21243437;27;20122;-57
2022/07/01 19:22:45;;;;;;;6.22;2.00;;;;;;;;;;21243281;28;20115;-56
2022/07/01 19:32:47;;;;;;;6.95;5.53;;;;;;;;;;21254378;27;20065;-54
2022/07/01 19:42:49;;;;;;;11.27;4.00;;;;;;;;;;21258183;27;20134;-55
2022/07/01 19:52:50;;;;;;;6.18;3.70;;;;;;;;;;21257340;27;20050;-57
2022/07/01 20:02:52;;;;;;;8.93;3.60;;;;;;;;;;21237869;27;20066;-57
2022/07/01 20:12:54;;;;;;;7.00;4.32;;;;;;;;;;21237427;27;20054;-56
2022/07/01 20:22:56;;;;;;;9.90;4.50;;;;;;;;;;21228369;27;20087;-61
2022/07/01 20:32:58;;;;;;;12.13;5.50;;;;;;;;;;21220504;27;20404;-57
2022/07/01 20:42:59;;;;;;;8.45;4.78;;;;;;;;;;21253167;27;20047;-54
2022/07/01 20:53:01;;;;;;;12.90;5.32;;;;;;;;;;21252686;27;20479;-56
2022/07/01 21:03:03;;;;;;;12.77;5.18;;;;;;;;;;21252382;27;20066;-54
2022/07/01 21:13:05;;;;;;;12.48;3.88;;;;;;;;;;21250316;27;20050;-57
2022/07/01 21:23:07;;;;;;;13.52;4.45;;;;;;;;;;21249917;27;20078;-56
2022/07/01 21:33:09;;;;;;;12.13;6.55;;;;;;;;;;21248780;27;20133;-56
2022/07/01 21:43:12;;;;;;;8.68;4.15;;;;;;;;;;21241200;27;20047;-56
2022/07/01 21:53:14;;;;;;;7.00;3.17;;;;;;;;;;21250364;27;20501;-57
2022/07/01 22:03:16;;;;;;;7.47;2.97;;;;;;;;;;21249173;27;20087;-57
2022/07/01 22:13:21;;;;;;;8.43;3.53;;;;;;;;;;21248250;27;20503;-59
2022/07/01 22:23:23;;;;;;;9.15;6.50;;;;;;;;;;21223001;27;20107;-57
2022/07/01 22:33:25;;;;;;;16.25;11.93;;;;;;;;;;21184251;27;20046;-58
2022/07/01 22:43:28;;;;;;;16.17;8.20;;;;;;;;;;21241637;27;20086;-55
2022/07/01 22:53:34;;;;;;;14.07;5.63;;;;;;;;;;21241603;28;20156;-60
2022/07/01 23:03:36;;;;;;;8.40;3.50;;;;;;;;;;21250627;27;20055;-57
2022/07/01 23:16:25;;;;;;;11.02;3.95;;;;;;;;;;21262914;27;20100;-58
2022/07/01 23:24:09;;;;;;;8.35;4.45;;;;;;;;;;21260681;27;20054;-55
2022/07/01 23:34:11;;;;;;;11.70;3.60;;;;;;;;;;21260451;27;20051;-58
2022/07/01 23:44:13;;;;;;;9.50;4.07;;;;;;;;;;21259117;27;20043;-56
2022/07/01 23:54:15;;;;;;;10.80;4.13;;;;;;;;;;21259444;27;20115;-56
